Time;durP1;ratioP1;P1;durP2;ratioP2;P2;SDS_P1;SDS_P2;PMS_P1;PMS_P2;Temp;Humidity;BMP_temperature;BMP_pressure;BME280_temperature;BME280_humidity;BME280_pressure;Samples;Min_cycle;Max_cycle;Signal;HPM_P1;HPM_P2
2023/01/05 00:00:34;;;;;;;0.73;0.73;;;13.90;62.30;;;12.84;60.73;100341.81;12248141;19;20011;-82
2023/01/05 00:04:36;;;;;;;1.60;1.00;;;13.80;62.30;;;12.78;60.78;100339.66;12244009;19;20018;-83
2023/01/05 00:08:39;;;;;;;1.70;0.68;;;13.80;62.00;;;12.74;60.70;100340.78;12248206;19;20011;-82
2023/01/05 00:25:46;;;;;;;4.05;1.33;;;13.70;61.70;;;12.60;60.75;100332.13;12246347;19;20044;-83
2023/01/05 00:29:47;;;;;;;3.55;1.20;;;13.60;61.40;;;12.60;60.79;100341.75;12246866;19;20353;-82
2023/01/05 00:33:49;;;;;;;1.77;0.85;;;13.60;61.60;;;12.54;60.92;100334.34;12246555;19;20027;-83
2023/01/05 00:37:51;;;;;;;1.30;0.80;;;13.60;61.50;;;12.52;60.77;100334.44;12246377;19;20018;-83
2023/01/05 00:41:55;;;;;;;2.67;0.90;;;13.60;61.60;;;12.55;60.79;100346.47;12247322;19;20021;-83
2023/01/05 00:45:56;;;;;;;2.00;0.70;;;13.60;61.60;;;12.50;60.82;100343.34;12247896;19;20006;-82
2023/01/05 00:49:58;;;;;;;1.42;0.68;;;13.60;61.80;;;12.37;60.82;100325.88;12246403;19;20018;-82
2023/01/05 00:54:03;;;;;;;2.60;1.00;;;13.50;61.60;;;12.49;60.90;100352.16;12255930;19;20019;-82
2023/01/05 00:58:05;;;;;;;1.58;0.88;;;13.50;61.80;;;12.42;60.84;100338.63;12261313;19;20007;-82
2023/01/05 01:02:07;;;;;;;3.55;0.82;;;13.50;61.80;;;12.17;60.82;100292.38;12257652;19;20049;-82
2023/01/05 01:06:09;;;;;;;1.45;0.70;;;13.50;61.80;;;12.51;60.94;100345.03;12262040;19;20376;-82
2023/01/05 01:10:11;;;;;;;2.28;0.93;;;13.50;61.60;;;12.25;60.86;100303.16;12258393;19;20013;-82
2023/01/05 01:14:14;;;;;;;1.60;0.93;;;13.50;61.70;;;12.51;60.99;100347.66;12259056;19;20026;-82
2023/01/05 01:18:15;;;;;;;1.20;0.90;;;13.50;61.70;;;12.49;60.90;100345.13;12257769;19;20495;-82
2023/01/05 01:22:17;;;;;;;7.95;1.30;;;13.50;61.30;;;12.28;60.99;100308.16;12259926;19;20655;-83
2023/01/05 01:26:23;;;;;;;2.35;1.08;;;13.50;61.20;;;12.44;60.87;100338.53;12257929;19;20021;-82
2023/01/05 01:30:24;;;;;;;1.90;1.20;;;13.60;61.50;;;12.42;61.09;100335.19;12255536;19;20007;-83
2023/01/05 01:34:29;;;;;;;2.00;1.02;;;13.60;61.40;;;12.52;60.92;100349.31;12254804;19;20030;-83
2023/01/05 01:38:32;;;;;;;3.70;0.98;;;13.60;61.20;;;12.54;61.07;100344.81;12260167;19;20021;-83
2023/01/05 01:42:34;;;;;;;6.65;1.50;;;13.60;61.30;;;12.54;60.88;100335.19;12254202;19;20480;-83
2023/01/05 01:46:36;;;;;;;3.60;1.15;;;13.60;61.20;;;12.58;60.82;100352.38;12258191;19;20010;-83
2023/01/05 01:50:50;;;;;;;5.38;1.00;;;13.60;61.10;;;12.51;60.88;100337.19;12253490;19;20026;-83
2023/01/05 01:54:52;;;;;;;3.55;1.00;;;13.60;61.10;;;12.55;60.85;100338.63;12253186;19;20044;-82
2023/01/05 01:58:54;;;;;;;2.60;1.20;;;13.60;60.90;;;12.58;60.87;100335.78;12256117;19;20022;-83
2023/01/05 02:03:00;;;;;;;3.28;0.85;;;13.70;61.00;;;12.57;60.94;100332.34;12252620;19;20550;-82
2023/01/05 02:07:04;;;;;;;2.88;0.93;;;13.60;60.80;;;12.52;60.81;100329.19;12255194;19;20014;-82
2023/01/05 02:11:33;;;;;;;2.38;0.95;;;13.70;60.80;;;12.61;60.78;100333.81;12252076;19;20368;-83
2023/01/05 02:16:35;;;;;;;1.95;0.85;;;13.70;60.70;;;12.58;60.90;100341.88;12254985;19;20015;-82
2023/01/05 02:20:46;;;;;;;2.28;1.00;;;13.60;60.60;;;12.62;60.86;100337.25;12251780;19;20018;-82
2023/01/05 02:25:25;;;;;;;1.10;0.70;;;13.60;60.50;;;12.55;60.79;100326.38;12251664;19;20018;-83
2023/01/05 02:29:55;;;;;;;1.23;1.13;;;13.70;60.80;;;12.62;60.72;100339.88;12250657;19;20019;-83
2023/01/05 02:34:39;;;;;;;2.85;1.10;;;13.70;60.50;;;12.61;60.86;100325.94;12251672;19;20454;-82
2023/01/05 02:39:19;;;;;;;1.95;0.90;;;13.70;60.40;;;12.52;60.79;100320.50;12253116;19;20331;-82
2023/01/05 02:43:24;;;;;;;2.22;1.02;;;13.70;60.20;;;12.59;60.86;100321.75;12246725;19;20473;-82
2023/01/05 02:47:47;;;;;;;4.05;1.40;;;13.70;60.30;;;12.53;60.75;100301.22;12253258;19;20013;-82
2023/01/05 02:51:54;;;;;;;0.95;0.90;;;13.70;60.20;;;12.58;60.87;100306.97;12251672;19;20347;-82
2023/01/05 02:56:23;;;;;;;2.33;1.10;;;13.70;60.10;;;12.54;60.89;100302.91;12249770;19;20491;-82
2023/01/05 03:00:35;;;;;;;4.47;1.00;;;13.70;60.10;;;12.62;60.88;100321.53;12252135;19;20066;-82
2023/01/05 03:04:51;;;;;;;3.80;0.95;;;13.70;59.90;;;12.59;60.74;100312.13;12248984;19;20007;-82
2023/01/05 03:09:04;;;;;;;2.53;0.90;;;13.70;60.00;;;12.61;60.70;100320.72;12250004;19;20007;-82
2023/01/05 03:17:45;;;;;;;2.20;1.13;;;13.80;60.00;;;12.60;60.69;100324.25;12251013;19;20023;-82
2023/01/05 03:35:31;;;;;;;1.85;0.80;;;13.80;59.50;;;12.61;60.69;100331.19;12246279;19;20074;-82
2023/01/05 03:39:39;;;;;;;1.95;0.80;;;13.80;59.50;;;12.61;60.65;100330.38;12250230;19;20038;-82
2023/01/05 03:43:42;;;;;;;1.38;0.73;;;13.80;59.50;;;12.53;60.61;100316.94;12246130;19;20022;-82
2023/01/05 03:47:44;;;;;;;1.60;0.73;;;13.70;59.30;;;12.69;60.59;100342.91;12249042;19;20015;-82
2023/01/05 03:51:46;;;;;;;3.40;1.42;;;13.70;59.30;;;12.67;60.59;100350.88;12248467;19;20038;-82
2023/01/05 03:55:53;;;;;;;4.38;1.10;;;13.70;59.30;;;12.69;60.60;100354.25;12249986;19;20006;-82
2023/01/05 03:59:55;;;;;;;1.33;0.73;;;13.70;59.20;;;12.64;60.60;100335.38;12248772;19;20673;-82
2023/01/05 04:03:58;;;;;;;2.10;0.82;;;13.70;59.20;;;12.66;60.56;100343.94;12248099;19;20018;-82
2023/01/05 04:08:00;;;;;;;0.95;0.90;;;13.70;59.20;;;12.70;60.53;100350.66;12247960;19;20078;-82
2023/01/05 04:12:03;;;;;;;1.95;0.82;;;13.80;59.20;;;12.72;60.44;100358.41;12246568;19;20026;-82
2023/01/05 04:16:09;;;;;;;2.30;0.82;;;13.80;59.30;;;12.74;60.51;100369.63;12249017;19;20026;-82
2023/01/05 04:20:13;;;;;;;1.55;0.65;;;13.80;59.40;;;12.72;60.63;100355.78;12247694;19;20600;-82
2023/01/05 04:24:15;;;;;;;2.58;1.52;;;13.80;59.30;;;12.70;60.51;100345.41;12245936;19;20050;-82
2023/01/05 04:28:21;;;;;;;;;;;13.80;59.40;;;12.52;60.52;100331.81;12247912;19;20453;-82
2023/01/05 04:32:23;;;;;;;2.60;0.90;;;13.80;59.30;;;12.72;60.50;100367.13;12246364;19;20314;-82
2023/01/05 04:36:29;;;;;;;5.22;0.80;;;13.80;59.30;;;12.72;60.56;100361.88;12243397;19;20014;-82
2023/01/05 04:40:36;;;;;;;2.17;0.95;;;13.80;59.30;;;12.70;60.57;100366.38;12244426;19;20042;-82
2023/01/05 04:44:38;;;;;;;2.10;0.75;;;13.80;59.50;;;12.61;60.72;100362.63;12253072;19;20070;-84
2023/01/05 04:48:43;;;;;;;2.35;0.88;;;13.80;59.50;;;12.76;60.53;100373.81;12253208;19;20457;-83
2023/01/05 04:52:45;;;;;;;1.17;0.80;;;13.90;59.60;;;12.74;60.46;100365.22;12254232;19;20010;-83
2023/01/05 04:56:52;;;;;;;3.63;0.90;;;13.80;59.50;;;12.74;60.54;100377.47;12247030;19;20045;-82
2023/01/05 05:00:54;;;;;;;2.25;0.75;;;13.90;59.50;;;12.67;60.54;100377.06;12247621;19;20082;-83
2023/01/05 05:04:58;;;;;;;1.90;0.68;;;14.00;59.50;;;12.80;60.48;100377.06;12243203;19;20027;-82
2023/01/05 05:09:01;;;;;;;0.75;0.60;;;13.90;59.50;;;12.74;60.65;100383.53;12244267;19;20015;-82
2023/01/05 05:13:04;;;;;;;1.23;0.60;;;13.80;59.40;;;12.73;60.51;100399.41;12244252;19;20025;-82
2023/01/05 05:17:06;;;;;;;1.65;0.70;;;13.90;59.80;;;12.78;60.45;100408.59;12245274;19;20014;-82
2023/01/05 05:21:10;;;;;;;0.55;0.47;;;13.80;60.10;;;12.63;60.56;100375.59;12245876;19;20493;-82
2023/01/05 05:25:14;;;;;;;2.05;0.60;;;13.80;60.00;;;12.52;60.60;100370.28;12240559;19;20477;-82
2023/01/05 05:29:19;;;;;;;2.03;0.65;;;13.80;60.50;;;12.70;60.59;100397.81;12242533;19;20524;-82
2023/01/05 05:33:28;;;;;;;0.60;0.60;;;13.80;60.30;;;12.70;60.56;100410.09;12237271;19;20022;-81
2023/01/05 05:37:30;;;;;;;1.10;1.00;;;13.80;60.60;;;12.65;60.55;100404.31;12249312;19;20031;-82
2023/01/05 05:41:32;;;;;;;3.30;0.70;;;13.90;60.80;;;12.58;60.70;100417.00;12255604;19;20018;-82
2023/01/05 05:45:34;;;;;;;1.85;0.70;;;13.70;61.10;;;12.61;60.65;100411.56;12254069;19;20010;-82
2023/01/05 05:49:35;;;;;;;0.88;0.73;;;13.80;61.90;;;12.55;60.74;100406.72;12253604;19;20029;-82
2023/01/05 05:53:40;;;;;;;0.80;0.70;;;13.60;61.60;;;12.50;60.88;100398.34;12252433;19;20016;-82
2023/01/05 05:57:42;;;;;;;1.52;0.70;;;13.60;61.70;;;12.53;60.66;100411.22;12256572;19;20014;-82
2023/01/05 06:01:43;;;;;;;2.70;1.00;;;13.50;61.50;;;12.38;60.72;100397.41;12254402;19;20014;-82
2023/01/05 06:05:45;;;;;;;4.70;1.20;;;13.50;61.80;;;12.43;60.83;100408.41;12254082;19;20468;-82
2023/01/05 06:09:47;;;;;;;1.80;0.63;;;13.50;61.60;;;12.33;60.76;100396.88;12253519;19;20094;-82
2023/01/05 06:13:49;;;;;;;1.10;0.65;;;13.50;61.70;;;12.45;60.88;100398.69;12251981;19;20034;-82
2023/01/05 06:17:50;;;;;;;0.70;0.68;;;13.50;61.60;;;12.33;60.83;100408.19;12254265;19;20014;-81
2023/01/05 06:21:56;;;;;;;2.03;0.80;;;13.50;61.80;;;12.39;60.94;100430.50;12251760;19;20014;-82
2023/01/05 06:25:58;;;;;;;1.50;0.73;;;13.40;61.90;;;12.27;61.07;100460.97;12256529;19;20026;-83
2023/01/05 06:30:00;;;;;;;1.83;0.60;;;13.40;62.10;;;12.25;61.01;100452.38;12249140;19;20022;-82
2023/01/05 06:34:02;;;;;;;0.40;0.40;;;13.40;61.80;;;12.23;61.09;100456.88;12251078;19;20021;-83
2023/01/05 06:38:07;;;;;;;0.73;0.40;;;13.30;61.30;;;12.13;61.08;100447.97;12252562;19;20015;-82
2023/01/05 06:42:09;;;;;;;2.22;0.45;;;13.30;61.00;;;12.13;61.03;100461.06;12253632;19;20015;-83
2023/01/05 06:46:10;;;;;;;0.88;0.50;;;13.20;60.90;;;12.12;61.14;100473.31;12259018;19;20019;-83
2023/01/05 06:50:12;;;;;;;2.25;0.80;;;13.20;61.20;;;11.93;60.92;100434.41;12248815;19;20363;-83
2023/01/05 06:54:14;;;;;;;0.65;0.55;;;13.10;61.30;;;12.02;60.99;100469.63;12249328;19;20011;-84
2023/01/05 06:58:16;;;;;;;2.60;0.80;;;13.10;61.40;;;12.07;61.01;100472.78;12252332;19;20367;-84
2023/01/05 07:02:18;;;;;;;0.60;0.60;;;13.10;61.50;;;12.04;61.01;100479.97;12247080;19;20014;-83
2023/01/05 07:06:21;;;;;;;0.70;0.60;;;13.30;61.80;;;11.87;61.09;100453.13;12248860;19;20035;-83
2023/01/05 07:10:23;;;;;;;1.40;0.70;;;13.10;61.80;;;12.00;60.95;100475.88;12249968;19;20017;-84
2023/01/05 07:14:24;;;;;;;0.80;0.70;;;13.10;61.70;;;12.10;61.12;100487.44;12248785;19;20464;-83
2023/01/05 07:18:26;;;;;;;0.43;0.43;;;13.10;61.60;;;12.07;61.17;100504.19;12249978;19;20014;-83
2023/01/05 07:22:29;;;;;;;0.50;0.50;;;13.10;61.60;;;12.07;61.10;100493.72;12247855;19;20114;-83
2023/01/05 07:26:35;;;;;;;0.55;0.50;;;13.10;61.60;;;11.92;60.99;100497.31;12251797;19;20389;-84
2023/01/05 07:30:36;;;;;;;0.68;0.40;;;13.10;61.50;;;12.05;61.14;100515.69;12247796;19;20047;-84
2023/01/05 07:34:38;;;;;;;0.65;0.43;;;13.10;61.30;;;11.96;61.00;100501.38;12252907;19;20023;-84
2023/01/05 07:38:40;;;;;;;0.77;0.60;;;13.10;61.00;;;11.97;61.03;100507.50;12250860;19;20014;-84
2023/01/05 07:42:42;;;;;;;0.82;0.50;;;13.10;60.50;;;11.93;60.95;100507.66;12249106;19;20018;-84
2023/01/05 07:46:44;;;;;;;0.45;0.45;;;13.00;60.30;;;11.97;61.04;100536.28;12248995;19;20014;-84
2023/01/05 07:50:46;;;;;;;0.75;0.47;;;13.00;60.20;;;11.80;61.03;100506.75;12244473;19;20452;-84
2023/01/05 07:54:47;;;;;;;0.90;0.52;;;13.00;60.00;;;11.82;61.08;100530.19;12241723;19;20034;-84
2023/01/05 07:58:49;;;;;;;1.02;0.50;;;13.00;59.90;;;11.88;60.97;100543.78;12242043;19;20506;-84
2023/01/05 08:02:51;;;;;;;0.55;0.55;;;13.00;59.80;;;11.92;60.93;100562.72;12246117;19;20014;-83
2023/01/05 08:06:52;;;;;;;1.50;0.60;;;13.00;59.60;;;11.86;61.05;100550.88;12248582;19;20481;-83
2023/01/05 08:11:04;;;;;;;6.43;0.50;;;12.90;59.30;;;11.85;61.10;100562.22;12247292;19;20469;-83
2023/01/05 08:15:06;;;;;;;0.50;0.50;;;12.90;59.40;;;11.83;61.03;100569.34;12245371;19;20111;-83
2023/01/05 08:19:09;;;;;;;0.38;0.38;;;12.90;59.40;;;11.82;61.03;100577.28;12246154;19;20436;-82
2023/01/05 08:23:27;;;;;;;0.40;0.40;;;12.90;59.20;;;11.78;60.91;100594.13;12248888;19;20104;-85
2023/01/05 08:27:33;;;;;;;0.50;0.50;;;12.90;59.00;;;11.83;60.88;100606.00;12250820;19;20018;-83
2023/01/05 08:31:37;;;;;;;0.60;0.60;;;12.90;58.90;;;11.82;60.76;100609.53;12245747;19;20607;-83
2023/01/05 08:35:45;;;;;;;0.40;0.40;;;12.90;58.90;;;11.80;60.94;100613.16;12246142;19;20109;-84
2023/01/05 08:39:47;;;;;;;0.98;0.70;;;12.90;59.00;;;11.79;60.80;100614.13;12251707;19;20014;-83
2023/01/05 08:44:13;;;;;;;0.40;0.40;;;12.90;59.10;;;11.82;60.67;100629.63;12245599;19;20021;-83
2023/01/05 08:48:15;;;;;;;0.98;0.45;;;12.90;59.10;;;11.80;60.76;100629.72;12247504;19;20014;-83
2023/01/05 08:52:21;;;;;;;0.60;0.40;;;13.00;59.10;;;11.88;60.74;100627.50;12243217;19;20084;-83
2023/01/05 08:56:25;;;;;;;0.65;0.43;;;12.90;59.10;;;11.68;60.73;100612.16;12248659;19;20051;-84
2023/01/05 09:00:30;;;;;;;0.40;0.40;;;13.00;59.00;;;11.67;60.58;100587.78;12248470;19;20006;-87
2023/01/05 09:04:32;;;;;;;0.55;0.40;;;13.00;58.80;;;11.97;60.75;100638.34;12242099;19;20473;-84
2023/01/05 09:08:46;;;;;;;0.75;0.40;;;13.00;58.90;;;11.93;60.78;100641.13;12246141;19;20021;-84
2023/01/05 09:12:49;;;;;;;0.50;0.50;;;13.10;59.00;;;12.04;60.71;100665.78;12265633;19;20006;-84
2023/01/05 09:16:53;;;;;;;0.50;0.50;;;13.10;58.80;;;12.05;60.61;100684.03;12259986;19;20074;-84
2023/01/05 09:20:55;;;;;;;0.40;0.40;;;13.10;58.70;;;12.04;60.75;100671.84;12260117;19;20018;-84
2023/01/05 09:24:57;;;;;;;0.50;0.40;;;13.20;58.60;;;12.08;60.63;100669.91;12254020;19;20021;-84
2023/01/05 09:28:59;;;;;;;0.77;0.52;;;13.20;58.40;;;12.10;60.53;100678.50;12257788;19;20022;-84
2023/01/05 09:33:00;;;;;;;1.00;0.50;;;13.20;58.10;;;12.14;60.45;100683.44;12257021;19;20011;-84
2023/01/05 09:37:02;;;;;;;1.30;0.70;;;13.30;58.10;;;12.11;60.53;100669.72;12262594;19;20457;-84
2023/01/05 09:41:33;;;;;;;0.50;0.50;;;13.30;58.00;;;12.24;60.39;100706.44;12259277;19;20521;-84
2023/01/05 09:45:36;;;;;;;1.55;0.60;;;13.40;58.10;;;12.24;60.46;100704.66;12259293;19;20003;-84
2023/01/05 09:49:39;;;;;;;0.52;0.50;;;13.40;57.90;;;12.28;60.49;100714.00;12256687;19;20039;-84
2023/01/05 09:53:47;;;;;;;2.53;0.65;;;13.40;57.80;;;12.31;60.28;100715.59;12256247;19;20015;-83
2023/01/05 09:58:04;;;;;;;;;;;13.40;57.90;;;12.28;60.40;100721.84;12260880;19;20014;-83
2023/01/05 10:02:59;;;;;;;0.95;0.50;;;13.50;58.00;;;12.33;60.37;100725.03;12259470;19;19940;-83
2023/01/05 10:07:40;;;;;;;0.60;0.57;;;13.50;57.60;;;12.27;60.30;100717.56;12261954;19;20019;-83
2023/01/05 10:16:18;;;;;;;1.08;0.70;;;13.50;56.80;;;12.26;60.21;100722.88;12258293;19;20015;-83
2023/01/05 10:20:43;;;;;;;0.85;0.50;;;13.50;56.90;;;12.23;60.03;100737.00;12264026;19;20019;-84
2023/01/05 10:24:44;;;;;;;1.23;0.98;;;13.40;56.80;;;12.25;59.93;100748.22;12259063;19;20014;-83
2023/01/05 10:29:10;;;;;;;1.67;0.88;;;13.40;56.50;;;12.20;59.88;100721.47;12262579;19;20420;-83
2023/01/05 10:33:27;;;;;;;1.05;0.90;;;13.40;56.50;;;12.14;59.81;100745.44;12258342;19;20022;-83
2023/01/05 10:38:02;;;;;;;2.35;1.08;;;13.30;56.50;;;12.13;59.69;100743.75;12256244;19;20022;-83
2023/01/05 10:42:33;;;;;;;0.80;0.50;;;13.30;56.00;;;12.11;59.61;100725.53;12254615;19;20015;-83
2023/01/05 10:46:41;;;;;;;1.67;0.80;;;13.30;55.30;;;12.11;59.86;100758.72;12255599;19;20010;-83
2023/01/05 10:50:48;;;;;;;2.22;0.73;;;13.30;56.00;;;11.99;59.57;100728.03;12254014;19;20037;-83
2023/01/05 10:55:00;;;;;;;3.33;1.02;;;13.20;55.80;;;12.06;59.49;100743.28;12249987;19;20031;-84
2023/01/05 10:59:11;;;;;;;3.63;0.88;;;13.20;55.80;;;12.02;59.52;100743.59;12256516;19;20121;-83
2023/01/05 11:03:16;;;;;;;1.30;0.68;;;13.20;55.80;;;12.12;59.51;100768.25;12253195;19;20020;-84
2023/01/05 11:07:18;;;;;;;1.15;0.70;;;13.20;56.00;;;12.05;59.46;100769.56;12259394;19;20057;-84
2023/01/05 11:11:25;;;;;;;2.20;0.82;;;13.30;55.90;;;12.11;59.42;100777.03;12249101;19;20025;-83
2023/01/05 11:15:33;;;;;;;0.80;0.45;;;13.20;56.00;;;12.03;59.40;100763.56;12250952;19;20014;-84
2023/01/05 11:19:43;;;;;;;0.70;0.70;;;13.20;56.00;;;12.09;59.41;100768.44;12262085;19;20025;-84
2023/01/05 11:24:27;;;;;;;1.00;0.73;;;13.20;55.80;;;12.02;59.21;100775.00;12266455;19;20019;-83
2023/01/05 11:28:29;;;;;;;2.40;0.50;;;13.30;55.90;;;12.04;59.18;100779.16;12266412;19;20533;-83
2023/01/05 11:32:30;;;;;;;0.55;0.55;;;13.30;55.90;;;12.11;59.07;100797.97;12264760;19;20013;-83
2023/01/05 11:36:33;;;;;;;2.35;0.70;;;13.20;55.60;;;11.83;59.15;100762.97;12259509;19;20046;-84
2023/01/05 11:40:35;;;;;;;1.50;0.88;;;13.30;55.90;;;12.09;59.15;100811.16;12261684;19;20015;-84
2023/01/05 11:44:59;;;;;;;0.80;0.50;;;13.30;56.00;;;12.09;58.96;100821.63;12260241;19;20023;-84
2023/01/05 11:49:01;;;;;;;0.70;0.60;;;13.30;55.80;;;12.08;59.06;100822.56;12257783;19;20019;-83
2023/01/05 11:53:02;;;;;;;3.50;0.98;;;13.20;56.00;;;12.15;58.97;100826.50;12258835;19;20015;-80
2023/01/05 11:57:25;;;;;;;0.70;0.70;;;13.20;55.40;;;12.04;59.01;100822.81;12261082;19;20015;-81
2023/01/05 12:01:40;;;;;;;2.13;0.70;;;13.20;55.70;;;12.12;58.95;100846.78;12259901;19;20480;-82
2023/01/05 12:05:54;;;;;;;0.70;0.50;;;13.20;55.90;;;12.00;59.00;100835.25;12262444;19;20015;-82
2023/01/05 12:11:03;;;;;;;1.30;0.90;;;13.30;55.90;;;12.13;58.88;100865.00;12256808;19;20022;-81
2023/01/05 12:15:23;;;;;;;1.13;0.50;;;13.30;55.70;;;12.20;58.90;100870.72;12256122;19;20049;-82
2023/01/05 12:19:53;;;;;;;0.93;0.70;;;13.30;55.80;;;12.25;58.92;100884.38;12260826;19;20369;-82
2023/01/05 12:24:29;;;;;;;3.58;1.02;;;13.30;55.70;;;12.21;58.59;100885.50;12259959;19;20022;-83
2023/01/05 12:29:10;;;;;;;2.65;0.90;;;13.40;55.70;;;12.28;58.66;100892.03;12259800;19;20025;-82
2023/01/05 12:34:05;;;;;;;0.93;0.52;;;13.40;55.40;;;12.30;58.65;100905.06;12261768;19;20525;-83
2023/01/05 12:38:35;;;;;;;1.95;0.60;;;13.40;55.70;;;12.33;58.76;100926.66;12261600;19;20501;-82
2023/01/05 12:43:07;;;;;;;1.00;0.90;;;13.40;55.60;;;12.31;58.58;100920.69;12254008;19;20039;-82
2023/01/05 12:47:30;;;;;;;2.58;0.75;;;13.50;55.60;;;12.33;58.58;100921.41;12260585;19;20014;-82
2023/01/05 12:52:06;;;;;;;2.83;0.60;;;13.40;55.40;;;12.28;58.63;100920.84;12258450;19;20465;-83
2023/01/05 12:56:41;;;;;;;2.72;0.73;;;13.40;55.20;;;12.18;58.49;100919.72;12260072;19;20432;-83
2023/01/05 13:00:45;;;;;;;0.93;0.57;;;13.40;55.30;;;12.24;58.59;100935.06;12256239;19;20018;-82
2023/01/05 13:05:04;;;;;;;2.38;0.73;;;13.40;55.30;;;12.25;58.56;100949.84;12253693;19;20505;-83
2023/01/05 13:09:19;;;;;;;0.60;0.60;;;13.40;55.40;;;12.21;58.45;100930.03;12251093;19;20359;-82
2023/01/05 13:13:42;;;;;;;2.00;0.73;;;13.40;55.20;;;12.22;58.47;100938.72;12250992;19;20014;-83
2023/01/05 13:17:52;;;;;;;1.05;0.70;;;13.30;55.00;;;12.22;58.47;100965.72;12255333;19;20018;-82
2023/01/05 13:21:56;;;;;;;0.98;0.55;;;13.30;54.80;;;12.11;58.31;100949.81;12248938;19;20034;-83
2023/01/05 13:26:16;;;;;;;1.03;0.73;;;13.30;54.80;;;12.19;58.37;100968.53;12253292;19;20015;-82
2023/01/05 13:30:30;;;;;;;1.95;0.75;;;13.30;55.10;;;12.19;58.51;100989.47;12255259;19;20082;-82
2023/01/05 13:35:10;;;;;;;1.70;0.88;;;13.30;54.80;;;12.17;58.30;100996.56;12249358;19;20022;-82
2023/01/05 13:39:36;;;;;;;1.50;0.50;;;13.30;54.90;;;12.20;58.14;101003.41;12259677;19;20414;-82
2023/01/05 13:44:04;;;;;;;1.33;0.68;;;13.30;54.90;;;12.17;58.20;101017.50;12256590;19;20021;-81
2023/01/05 13:48:50;;;;;;;0.85;0.60;;;13.30;54.90;;;12.13;57.97;101043.03;12254221;19;20013;-81
2023/01/05 13:53:01;;;;;;;2.47;0.60;;;13.30;54.50;;;12.14;58.10;101054.34;12255733;19;20053;-80
2023/01/05 13:57:26;;;;;;;2.53;0.90;;;13.30;54.90;;;12.01;57.99;101011.47;12256413;19;20010;-80
2023/01/05 14:01:39;;;;;;;1.80;0.83;;;13.20;54.60;;;12.12;57.79;101058.81;12263680;19;20497;-81
2023/01/05 14:05:57;;;;;;;1.55;0.55;;;13.20;53.50;;;12.05;57.79;101060.94;12264907;19;20317;-80
2023/01/05 14:10:01;;;;;;;2.83;0.82;;;13.20;54.10;;;12.06;57.73;101091.41;12264056;19;20077;-82
2023/01/05 14:14:27;;;;;;;0.40;0.40;;;13.20;53.80;;;11.95;57.62;101089.41;12256072;19;20047;-83
2023/01/05 14:18:51;;;;;;;2.20;0.60;;;13.10;54.20;;;11.91;57.65;101094.91;12256326;19;20081;-82
2023/01/05 14:22:53;;;;;;;0.63;0.63;;;13.10;54.20;;;11.89;57.69;101118.53;12259227;19;20039;-83
2023/01/05 14:27:15;;;;;;;0.70;0.60;;;13.00;54.20;;;11.79;57.79;101133.00;12261966;19;20069;-83
2023/01/05 14:31:26;;;;;;;1.30;0.40;;;13.00;54.30;;;11.81;57.65;101140.78;12256175;19;20019;-82
2023/01/05 14:35:34;;;;;;;1.55;0.52;;;12.90;54.40;;;11.74;57.67;101145.47;12256851;19;20081;-82
2023/01/05 14:39:44;;;;;;;1.33;0.77;;;12.90;54.50;;;11.71;57.43;101166.56;12265263;19;20098;-83
2023/01/05 14:43:57;;;;;;;1.65;0.60;;;12.80;54.30;;;11.69;57.59;101163.19;12266397;19;20010;-83
2023/01/05 14:48:06;;;;;;;0.90;0.70;;;12.80;54.50;;;11.58;57.65;101153.28;12268761;19;20014;-83
2023/01/05 14:52:39;;;;;;;2.50;1.08;;;12.80;54.60;;;11.63;57.42;101187.06;12263646;19;20021;-82
2023/01/05 14:57:25;;;;;;;1.05;0.50;;;12.70;54.80;;;11.56;57.45;101199.63;12266066;19;20010;-82
2023/01/05 15:01:47;;;;;;;0.73;0.65;;;12.70;55.00;;;11.53;57.56;101210.25;12258863;19;20082;-81
2023/01/05 15:06:20;;;;;;;1.13;0.63;;;12.60;54.30;;;11.47;57.42;101231.47;12263550;19;20030;-83
2023/01/05 15:11:01;;;;;;;1.50;0.80;;;12.50;54.40;;;11.37;57.62;101223.25;12256133;19;20010;-82
2023/01/05 15:15:15;;;;;;;1.52;0.80;;;12.50;54.50;;;11.22;57.28;101216.16;12262216;19;20014;-82
2023/01/05 15:19:45;;;;;;;2.43;1.23;;;12.50;54.50;;;11.34;57.54;101267.88;12265320;19;20007;-82
2023/01/05 15:24:22;;;;;;;2.95;2.10;;;12.40;54.60;;;11.32;57.37;101268.88;12278045;19;20025;-82
2023/01/05 15:29:09;;;;;;;7.00;4.32;;;12.40;54.70;;;11.30;57.56;101288.06;12261220;19;20010;-82
2023/01/05 15:33:46;;;;;;;4.72;3.30;;;12.40;54.80;;;11.21;57.46;101285.91;12258340;19;20492;-82
2023/01/05 15:37:50;;;;;;;1.52;1.42;;;12.40;54.70;;;11.18;57.61;101298.28;12261040;19;20014;-82
2023/01/05 15:41:56;;;;;;;1.37;1.23;;;12.30;54.70;;;11.10;57.37;101296.06;12259024;19;20366;-83
2023/01/05 15:45:59;;;;;;;1.17;1.00;;;12.20;54.70;;;11.12;57.46;101311.63;12259694;19;20544;-82
2023/01/05 15:50:01;;;;;;;1.92;1.15;;;12.20;54.70;;;11.10;57.51;101316.09;12255282;19;20006;-82
2023/01/05 15:54:04;;;;;;;1.67;0.98;;;12.20;54.70;;;11.02;57.37;101309.47;12253609;19;20019;-82
2023/01/05 15:58:14;;;;;;;1.30;1.08;;;12.10;54.60;;;10.85;57.40;101298.97;12258744;19;20545;-82
2023/01/05 16:02:28;;;;;;;0.73;0.45;;;12.10;54.30;;;10.91;57.30;101330.06;12253335;19;20090;-82
2023/01/05 16:06:30;;;;;;;1.17;0.60;;;12.10;54.50;;;10.87;57.40;101319.81;12259202;19;20049;-82
2023/01/05 16:10:37;;;;;;;0.50;0.50;;;12.10;54.60;;;10.90;57.21;101335.34;12256282;19;20014;-82
2023/01/05 16:14:44;;;;;;;1.00;0.60;;;12.00;54.60;;;10.93;57.31;101350.88;12269747;19;20026;-83
2023/01/05 16:18:54;;;;;;;1.40;0.68;;;12.00;54.50;;;10.91;57.26;101345.72;12260440;19;20618;-81
2023/01/05 16:23:18;;;;;;;1.85;1.45;;;12.00;54.50;;;10.75;57.41;101344.75;12254625;19;20413;-82
2023/01/05 16:27:20;;;;;;;0.82;0.55;;;12.00;54.50;;;10.69;57.39;101348.47;12257034;19;20039;-82
2023/01/05 16:31:34;;;;;;;0.70;0.70;;;11.90;54.40;;;10.71;57.47;101361.47;12256460;19;20150;-82
2023/01/05 16:35:45;;;;;;;0.52;0.52;;;11.90;54.40;;;10.68;57.28;101370.28;12275427;19;20018;-81
2023/01/05 16:39:49;;;;;;;3.20;0.63;;;11.80;54.40;;;10.77;57.28;101382.06;12276459;19;20476;-82
2023/01/05 16:43:53;;;;;;;2.67;0.77;;;11.80;54.60;;;10.77;57.33;101384.69;12267824;19;20010;-81
2023/01/05 16:47:55;;;;;;;2.63;0.85;;;11.80;54.50;;;10.65;57.15;101372.19;12266464;19;20018;-81
2023/01/05 16:51:57;;;;;;;1.30;0.90;;;11.80;54.40;;;10.68;57.16;101382.50;12250853;19;20022;-82
2023/01/05 16:55:58;;;;;;;1.00;0.73;;;11.80;54.60;;;10.68;57.30;101392.94;12255325;19;20009;-82
2023/01/05 17:00:00;;;;;;;0.68;0.45;;;11.80;54.50;;;10.68;57.39;101409.47;12254891;19;20050;-81
2023/01/05 17:04:15;;;;;;;2.03;0.80;;;11.70;54.60;;;10.39;57.23;101376.81;12252696;19;20045;-82
2023/01/05 17:08:27;;;;;;;1.58;0.70;;;11.70;54.50;;;10.56;57.06;101412.63;12254258;19;20015;-82
2023/01/05 17:12:29;;;;;;;1.52;0.65;;;11.70;54.50;;;10.52;57.09;101411.91;12254113;19;20480;-81
2023/01/05 17:16:30;;;;;;;1.25;0.85;;;11.70;54.60;;;10.54;57.23;101422.28;12252615;19;20007;-82
2023/01/05 17:20:40;;;;;;;0.75;0.75;;;11.60;54.70;;;10.49;57.22;101430.31;12257681;19;20027;-81
2023/01/05 17:24:42;;;;;;;0.70;0.70;;;11.60;54.60;;;10.43;57.13;101441.03;12249824;19;20349;-81
2023/01/05 17:28:43;;;;;;;2.67;0.98;;;11.60;54.60;;;10.14;57.20;101398.72;12250993;19;20018;-81
2023/01/05 17:32:45;;;;;;;0.95;0.90;;;11.50;54.70;;;10.45;57.39;101469.69;12254597;19;20042;-81
2023/01/05 17:36:52;;;;;;;5.13;0.82;;;11.50;54.80;;;10.32;57.30;101448.50;12268391;19;20003;-82
2023/01/05 17:40:53;;;;;;;1.40;0.93;;;11.50;54.90;;;10.29;57.22;101446.84;12265634;19;20476;-81
2023/01/05 17:44:55;;;;;;;1.65;0.85;;;11.50;54.90;;;10.44;57.21;101479.28;12261162;19;20023;-81